Terminal Aerodrome Forecast
Issued by NWS

Home | Current Version | Previous Version | Text Only | Print | Product List | Glossary On
Versions: 1 2 3 4 5 6 7 8 9 10 11 12 13 14 15 16
857
FTUS43 KMQT 271130
TAFIWD
TAF
KIWD 271130Z 2712/2812 00000KT P6SM SCT010 OVC060
      TEMPO 2712/2713 1SM BR BKN002
     FM271700 02004KT P6SM VCTS OVC040CB
     FM271900 02004KT P6SM VCSH OVC030
     FM280000 06004KT P6SM BKN050
     FM280800 00000KT P6SM FEW140
      AMD LTD TO CLD VIS AND WIND=

USA.gov is the U.S. government's official web portal to all federal, state and local government web resources and services.